Flood From: 21-02-2018 18:00 Until: 22-02-2018 16:00 warning for: Flood Level: Yellow info button

Although rather usual in this region, locally or potentially dangerous phenomena are expected. (such as local winds, summer thunderstorms, rising streams or high waves) Be aware and pay attention to the latest weather updates, especially if you carry out activities exposed to weather or close to a stream or shoreline. 


Meteo18 Weather Cam more information Meteo18 Weather Cam


Thunder radar more information blitzortung!


Rain radar more information rain snow radar


Visit our other weather sites:

Template documentation
and downloads

And another site



Weather Underground History page Text

Daily Summary for January 15, 2018 Units:  Both    English   Metric
« Previous Day
Next Day »
Daily Weekly Monthly Yearly Custom
  High: Low: Average:
Temperature: TemperatureC °F /  -17.8 °C 4.2 °F /  -15.4 °C 6.4 °F /  -14.2 °C
Dew Point: DewpointC °F /  -17.8 °C 3.0 °F /  -16.1 °C 5.1 °F /  -14.9 °C
Humidity: Humidity % 85 % 91 %
Wind Speed: WindSpeedKMH mph /  0 km/h - 15.3 mph /  24.6 km/h
Wind Gust: WindSpeedGustKMH mph /  0 km/h - -
Wind:- - SW
Pressure: PressurehPa in /  0 hPa 1007.3 in /  34107.2 hPa -
Precipitation: 9.4 in /  238.76 mm    
Historical Graphs
 
 
Tabular Data for January 15, 2018
Time Temperature Dew Point Pressure Wind Wind Speed Wind Gust Humidity Rainfall Rate (Hourly)
TemperatureC °F /  -17.8 °C DewpointC °F /  -17.8 °C PressurehPa in /  0 hPa Calm     Humidity % HourlyPrecipMM in /  0 mm
00:03 5.1 °F /  -14.9 °C 3.9 °F /  -15.6 °C 1020.2 in /  34544 hPa Calm     92 % 0.0 in /  0 mm
00:15 5.1 °F /  -14.9 °C 3.9 °F /  -15.6 °C 1020.2 in /  34544 hPa Calm     92 % 0.0 in /  0 mm
00:21 5.1 °F /  -14.9 °C 4.1 °F /  -15.5 °C 1020.2 in /  34544 hPa Calm     93 % 0.0 in /  0 mm
00:33 4.9 °F /  -15.1 °C 3.9 °F /  -15.6 °C 1020.2 in /  34544 hPa Calm     93 % 0.0 in /  0 mm
00:39 4.8 °F /  -15.1 °C 3.8 °F /  -15.7 °C 1020.2 in /  34544 hPa Calm     93 % 0.0 in /  0 mm
00:51 4.9 °F /  -15.1 °C 3.9 °F /  -15.6 °C 1020.2 in /  34544 hPa Calm     93 % 0.0 in /  0 mm
00:57 4.9 °F /  -15.1 °C 3.9 °F /  -15.6 °C 1020.5 in /  34554.1 hPa Calm     93 % 0.0 in /  0 mm
01:04 4.8 °F /  -15.1 °C 3.8 °F /  -15.7 °C 1020.2 in /  34544 hPa Calm     93 % 0.0 in /  0 mm
01:10 4.8 °F /  -15.1 °C 3.8 °F /  -15.7 °C 1020.2 in /  34544 hPa Calm     93 % 0.0 in /  0 mm
01:16 4.8 °F /  -15.1 °C 3.8 °F /  -15.7 °C 1020.2 in /  34544 hPa Calm     93 % 0.0 in /  0 mm
01:22 4.7 °F /  -15.2 °C 3.8 °F /  -15.7 °C 1020.2 in /  34544 hPa Calm     94 % 0.0 in /  0 mm
01:28 4.7 °F /  -15.2 °C 3.8 °F /  -15.7 °C 1020.2 in /  34544 hPa Calm     94 % 0.0 in /  0 mm
01:34 4.6 °F /  -15.2 °C 3.7 °F /  -15.7 °C 1020.2 in /  34544 hPa Calm     94 % 0.0 in /  0 mm
01:40 4.6 °F /  -15.2 °C 3.7 °F /  -15.7 °C 1020.2 in /  34544 hPa Calm     94 % 0.0 in /  0 mm
01:46 4.6 °F /  -15.2 °C 3.7 °F /  -15.7 °C 1020.2 in /  34544 hPa Calm     94 % 0.0 in /  0 mm
01:52 4.7 °F /  -15.2 °C 4.0 °F /  -15.6 °C 1020.2 in /  34544 hPa Calm     95 % 0.0 in /  0 mm
01:58 4.9 °F /  -15.1 °C 4.2 °F /  -15.4 °C 1020.2 in /  34544 hPa Calm     95 % 0.0 in /  0 mm
02:04 5.2 °F /  -14.9 °C 4.5 °F /  -15.3 °C 1020.2 in /  34544 hPa Calm     95 % 0.0 in /  0 mm
02:10 5.2 °F /  -14.9 °C 4.3 °F /  -15.4 °C 1020.2 in /  34544 hPa Calm     94 % 0.0 in /  0 mm
02:22 4.9 °F /  -15.1 °C 4.0 °F /  -15.6 °C 1020.2 in /  34544 hPa Calm     94 % 0.0 in /  0 mm
02:28 4.9 °F /  -15.1 °C 4.0 °F /  -15.6 °C 1019.9 in /  34533.8 hPa West 1.4 mph /  2.3 km/h 3.2 mph /  5.1 km/h 94 % 0.0 in /  0 mm
02:34 5.1 °F /  -14.9 °C 4.4 °F /  -15.3 °C 1019.9 in /  34533.8 hPa WSW 4.7 mph /  7.6 km/h 6.4 mph /  10.3 km/h 95 % 0.0 in /  0 mm
02:40 5.4 °F /  -14.8 °C 4.5 °F /  -15.3 °C 1019.9 in /  34533.8 hPa WSW 3.2 mph /  5.1 km/h 9.7 mph /  15.6 km/h 94 % 0.0 in /  0 mm
02:46 5.8 °F /  -14.6 °C 4.8 °F /  -15.1 °C 1019.9 in /  34533.8 hPa SW 3.2 mph /  5.1 km/h 11.3 mph /  18.2 km/h 93 % 0.0 in /  0 mm
02:53 6.0 °F /  -14.4 °C 4.6 °F /  -15.2 °C 1019.9 in /  34533.8 hPa WSW 13.0 mph /  20.9 km/h 13.0 mph /  20.9 km/h 91 % 0.0 in /  0 mm
02:59 6.1 °F /  -14.4 °C 4.7 °F /  -15.2 °C 1019.9 in /  34533.8 hPa WSW 11.1 mph /  17.9 km/h 14.5 mph /  23.3 km/h 91 % 0.0 in /  0 mm
03:05 6.1 °F /  -14.4 °C 4.7 °F /  -15.2 °C 1019.9 in /  34533.8 hPa WSW 14.3 mph /  23 km/h 16.1 mph /  25.9 km/h 91 % 0.0 in /  0 mm
03:11 5.9 °F /  -14.5 °C 4.5 °F /  -15.3 °C 1019.9 in /  34533.8 hPa WSW 11.1 mph /  17.9 km/h 20.9 mph /  33.6 km/h 91 % 0.0 in /  0 mm
03:17 5.8 °F /  -14.6 °C 4.4 °F /  -15.3 °C 1019.5 in /  34520.3 hPa WSW 14.3 mph /  23 km/h 19.3 mph /  31.1 km/h 91 % 0.0 in /  0 mm
03:27 5.6 °F /  -14.7 °C 4.4 °F /  -15.3 °C 1019.5 in /  34520.3 hPa West 4.7 mph /  7.6 km/h 16.1 mph /  25.9 km/h 92 % 0.0 in /  0 mm
03:33 5.6 °F /  -14.7 °C 4.4 °F /  -15.3 °C 1019.5 in /  34520.3 hPa SW 13.0 mph /  20.9 km/h 19.3 mph /  31.1 km/h 92 % 0.0 in /  0 mm
03:45 5.6 °F /  -14.7 °C 4.1 °F /  -15.5 °C 1019.5 in /  34520.3 hPa WSW 19.5 mph /  31.4 km/h 19.5 mph /  31.4 km/h 90 % 0.0 in /  0 mm
03:51 5.6 °F /  -14.7 °C 4.1 °F /  -15.5 °C 1019.5 in /  34520.3 hPa WSW 11.1 mph /  17.9 km/h 17.7 mph /  28.5 km/h 90 % 0.0 in /  0 mm
03:57 5.5 °F /  -14.7 °C 4.0 °F /  -15.6 °C 1019.5 in /  34520.3 hPa WSW 9.7 mph /  15.6 km/h 16.1 mph /  25.9 km/h 90 % 0.0 in /  0 mm
04:03 5.4 °F /  -14.8 °C 3.9 °F /  -15.6 °C 1019.5 in /  34520.3 hPa WSW 7.9 mph /  12.7 km/h 16.1 mph /  25.9 km/h 90 % 0.0 in /  0 mm
04:09 5.3 °F /  -14.8 °C 3.8 °F /  -15.7 °C 1019.5 in /  34520.3 hPa WSW 6.4 mph /  10.3 km/h 14.5 mph /  23.3 km/h 90 % 0.0 in /  0 mm
04:15 5.3 °F /  -14.8 °C 3.8 °F /  -15.7 °C 1019.2 in /  34510.1 hPa SW 9.7 mph /  15.6 km/h 16.1 mph /  25.9 km/h 90 % 0.0 in /  0 mm
04:21 5.2 °F /  -14.9 °C 3.7 °F /  -15.7 °C 1019.2 in /  34510.1 hPa SW 13.0 mph /  20.9 km/h 16.1 mph /  25.9 km/h 90 % 0.0 in /  0 mm
04:33 5.1 °F /  -14.9 °C 3.6 °F /  -15.8 °C 1019.2 in /  34510.1 hPa NW 4.7 mph /  7.6 km/h 12.9 mph /  20.8 km/h 90 % 0.0 in /  0 mm
04:39 5.1 °F /  -14.9 °C 3.6 °F /  -15.8 °C 1019.2 in /  34510.1 hPa South 6.4 mph /  10.3 km/h 14.5 mph /  23.3 km/h 90 % 0.0 in /  0 mm
04:47 5.2 °F /  -14.9 °C 3.7 °F /  -15.7 °C 1019.2 in /  34510.1 hPa SW 9.7 mph /  15.6 km/h 12.9 mph /  20.8 km/h 90 % 0.0 in /  0 mm
04:53 5.1 °F /  -14.9 °C 3.6 °F /  -15.8 °C 1019.2 in /  34510.1 hPa SW 3.2 mph /  5.1 km/h 11.3 mph /  18.2 km/h 90 % 0.0 in /  0 mm
04:59 5.0 °F /  -15 °C 3.5 °F /  -15.8 °C 1019.2 in /  34510.1 hPa SW 6.4 mph /  10.3 km/h 6.4 mph /  10.3 km/h 90 % 0.0 in /  0 mm
05:05 4.8 °F /  -15.1 °C 3.5 °F /  -15.8 °C 1018.8 in /  34496.6 hPa SW 11.1 mph /  17.9 km/h 11.3 mph /  18.2 km/h 91 % 0.0 in /  0 mm
05:11 4.8 °F /  -15.1 °C 3.5 °F /  -15.8 °C 1018.8 in /  34496.6 hPa SSW 7.9 mph /  12.7 km/h 9.7 mph /  15.6 km/h 91 % 0.0 in /  0 mm
05:19 4.6 °F /  -15.2 °C 3.3 °F /  -15.9 °C 1018.8 in /  34496.6 hPa SSW 4.7 mph /  7.6 km/h 6.4 mph /  10.3 km/h 91 % 0.0 in /  0 mm
05:25 4.4 °F /  -15.3 °C 3.2 °F /  -16 °C 1018.8 in /  34496.6 hPa SSW 6.4 mph /  10.3 km/h 9.7 mph /  15.6 km/h 92 % 0.0 in /  0 mm
05:31 4.4 °F /  -15.3 °C 3.2 °F /  -16 °C 1018.8 in /  34496.6 hPa South 4.7 mph /  7.6 km/h 9.7 mph /  15.6 km/h 92 % 0.0 in /  0 mm
05:43 4.6 °F /  -15.2 °C 3.4 °F /  -15.9 °C 1018.8 in /  34496.6 hPa SW 9.7 mph /  15.6 km/h 11.3 mph /  18.2 km/h 92 % 0.0 in /  0 mm
05:49 4.7 °F /  -15.2 °C 3.4 °F /  -15.9 °C 1018.8 in /  34496.6 hPa SW 6.4 mph /  10.3 km/h 8.0 mph /  12.9 km/h 91 % 0.0 in /  0 mm
05:55 4.6 °F /  -15.2 °C 3.3 °F /  -15.9 °C 1018.8 in /  34496.6 hPa SSW 3.2 mph /  5.1 km/h 4.8 mph /  7.7 km/h 91 % 0.0 in /  0 mm
06:01 4.4 °F /  -15.3 °C 3.1 °F /  -16.1 °C 1018.8 in /  34496.6 hPa SSW 3.2 mph /  5.1 km/h 4.8 mph /  7.7 km/h 91 % 0.0 in /  0 mm
06:07 4.3 °F /  -15.4 °C 3.1 °F /  -16.1 °C 1018.8 in /  34496.6 hPa SSW 4.7 mph /  7.6 km/h 8.0 mph /  12.9 km/h 92 % 0.0 in /  0 mm
06:13 4.3 °F /  -15.4 °C 3.1 °F /  -16.1 °C 1018.8 in /  34496.6 hPa SSW 4.7 mph /  7.6 km/h 8.0 mph /  12.9 km/h 92 % 0.0 in /  0 mm
06:19 4.2 °F /  -15.4 °C 3.0 °F /  -16.1 °C 1018.8 in /  34496.6 hPa SSW 6.4 mph /  10.3 km/h 9.7 mph /  15.6 km/h 92 % 0.0 in /  0 mm
06:25 4.2 °F /  -15.4 °C 3.0 °F /  -16.1 °C 1018.8 in /  34496.6 hPa SSW 7.9 mph /  12.7 km/h 8.0 mph /  12.9 km/h 92 % 0.0 in /  0 mm
06:31 4.2 °F /  -15.4 °C 3.0 °F /  -16.1 °C 1018.5 in /  34486.4 hPa SSW 1.4 mph /  2.3 km/h 6.4 mph /  10.3 km/h 92 % 0.0 in /  0 mm
06:37 4.2 °F /  -15.4 °C 3.0 °F /  -16.1 °C 1018.8 in /  34496.6 hPa SSW 1.4 mph /  2.3 km/h 6.4 mph /  10.3 km/h 92 % 0.0 in /  0 mm
06:43 4.2 °F /  -15.4 °C 3.0 °F /  -16.1 °C 1018.8 in /  34496.6 hPa SSW 3.2 mph /  5.1 km/h 4.8 mph /  7.7 km/h 92 % 0.0 in /  0 mm
06:49 4.2 °F /  -15.4 °C 3.0 °F /  -16.1 °C 1018.8 in /  34496.6 hPa South 4.7 mph /  7.6 km/h 4.8 mph /  7.7 km/h 92 % 0.0 in /  0 mm
06:55 4.2 °F /  -15.4 °C 3.0 °F /  -16.1 °C 1018.5 in /  34486.4 hPa SSW 3.2 mph /  5.1 km/h 4.8 mph /  7.7 km/h 92 % 0.0 in /  0 mm
07:01 4.2 °F /  -15.4 °C 3.0 °F /  -16.1 °C 1018.5 in /  34486.4 hPa SSW 1.4 mph /  2.3 km/h 4.8 mph /  7.7 km/h 92 % 0.0 in /  0 mm
07:07 4.2 °F /  -15.4 °C 3.0 °F /  -16.1 °C 1018.5 in /  34486.4 hPa SSW 1.4 mph /  2.3 km/h 3.2 mph /  5.1 km/h 92 % 0.0 in /  0 mm
07:13 4.3 °F /  -15.4 °C 3.1 °F /  -16.1 °C 1018.8 in /  34496.6 hPa SW 3.2 mph /  5.1 km/h 8.0 mph /  12.9 km/h 92 % 0.0 in /  0 mm
07:19 4.6 °F /  -15.2 °C 3.3 °F /  -15.9 °C 1018.8 in /  34496.6 hPa WSW 13.0 mph /  20.9 km/h 14.5 mph /  23.3 km/h 91 % 0.0 in /  0 mm
07:31 4.9 °F /  -15.1 °C 3.2 °F /  -16 °C 1018.8 in /  34496.6 hPa SSW 9.7 mph /  15.6 km/h 19.3 mph /  31.1 km/h 89 % 0.0 in /  0 mm
07:37 5.1 °F /  -14.9 °C 3.3 °F /  -15.9 °C 1019.2 in /  34510.1 hPa SSW 11.1 mph /  17.9 km/h 19.3 mph /  31.1 km/h 88 % 0.0 in /  0 mm
07:43 5.2 °F /  -14.9 °C 3.4 °F /  -15.9 °C 1018.8 in /  34496.6 hPa SW 13.0 mph /  20.9 km/h 16.1 mph /  25.9 km/h 88 % 0.0 in /  0 mm
07:53 5.3 °F /  -14.8 °C 3.5 °F /  -15.8 °C 1019.2 in /  34510.1 hPa SW 6.4 mph /  10.3 km/h 12.9 mph /  20.8 km/h 88 % 0.0 in /  0 mm
07:59 5.4 °F /  -14.8 °C 3.6 °F /  -15.8 °C 1019.2 in /  34510.1 hPa SSW 7.9 mph /  12.7 km/h 17.7 mph /  28.5 km/h 88 % 0.0 in /  0 mm
08:05 5.4 °F /  -14.8 °C 3.6 °F /  -15.8 °C 1018.8 in /  34496.6 hPa SSW 6.4 mph /  10.3 km/h 14.5 mph /  23.3 km/h 88 % 0.0 in /  0 mm
08:11 5.2 °F /  -14.9 °C 3.5 °F /  -15.8 °C 1018.8 in /  34496.6 hPa SSW 6.4 mph /  10.3 km/h 8.0 mph /  12.9 km/h 89 % 0.0 in /  0 mm
08:19 5.1 °F /  -14.9 °C 3.6 °F /  -15.8 °C 1018.8 in /  34496.6 hPa SW 9.7 mph /  15.6 km/h 12.9 mph /  20.8 km/h 90 % 0.0 in /  0 mm
08:25 5.1 °F /  -14.9 °C 3.6 °F /  -15.8 °C 1018.5 in /  34486.4 hPa SSW 11.1 mph /  17.9 km/h 12.9 mph /  20.8 km/h 90 % 0.0 in /  0 mm
08:33 5.1 °F /  -14.9 °C 3.6 °F /  -15.8 °C 1018.2 in /  34476.3 hPa SSW 9.7 mph /  15.6 km/h 16.1 mph /  25.9 km/h 90 % 0.0 in /  0 mm
08:39 5.1 °F /  -14.9 °C 3.4 °F /  -15.9 °C 1018.5 in /  34486.4 hPa SW 7.9 mph /  12.7 km/h 14.5 mph /  23.3 km/h 89 % 0.0 in /  0 mm
08:45 5.2 °F /  -14.9 °C 3.5 °F /  -15.8 °C 1018.5 in /  34486.4 hPa SSW 16.3 mph /  26.2 km/h 20.9 mph /  33.6 km/h 89 % 0.0 in /  0 mm
08:51 5.3 °F /  -14.8 °C 3.5 °F /  -15.8 °C 1018.5 in /  34486.4 hPa South 19.5 mph /  31.4 km/h 22.5 mph /  36.2 km/h 88 % 0.0 in /  0 mm
09:01 5.2 °F /  -14.9 °C 3.5 °F /  -15.8 °C 1018.2 in /  34476.3 hPa SSW 11.1 mph /  17.9 km/h 17.7 mph /  28.5 km/h 89 % 0.0 in /  0 mm
09:07 5.3 °F /  -14.8 °C 3.6 °F /  -15.8 °C 1018.2 in /  34476.3 hPa SSW 7.9 mph /  12.7 km/h 17.7 mph /  28.5 km/h 89 % 0.0 in /  0 mm
09:13 5.4 °F /  -14.8 °C 3.7 °F /  -15.7 °C 1018.2 in /  34476.3 hPa SW 9.7 mph /  15.6 km/h 22.5 mph /  36.2 km/h 89 % 0.0 in /  0 mm
09:19 5.6 °F /  -14.7 °C 3.8 °F /  -15.7 °C 1018.2 in /  34476.3 hPa SSW 20.9 mph /  33.6 km/h 22.5 mph /  36.2 km/h 88 % 0.0 in /  0 mm
09:27 5.7 °F /  -14.6 °C 3.9 °F /  -15.6 °C 1017.8 in /  34462.7 hPa SW 14.3 mph /  23 km/h 24.1 mph /  38.8 km/h 88 % 0.0 in /  0 mm
09:33 5.7 °F /  -14.6 °C 3.9 °F /  -15.6 °C 1017.8 in /  34462.7 hPa SSW 22.7 mph /  36.5 km/h 24.1 mph /  38.8 km/h 88 % 0.0 in /  0 mm
09:39 5.8 °F /  -14.6 °C 3.8 °F /  -15.7 °C 1017.5 in /  34452.6 hPa SSW 20.9 mph /  33.6 km/h 27.4 mph /  44.1 km/h 87 % 0.0 in /  0 mm
09:51 5.8 °F /  -14.6 °C 4.0 °F /  -15.6 °C 1017.5 in /  34452.6 hPa SW 14.3 mph /  23 km/h 20.9 mph /  33.6 km/h 88 % 0.0 in /  0 mm
09:57 5.8 °F /  -14.6 °C 4.0 °F /  -15.6 °C 1017.5 in /  34452.6 hPa SW 20.9 mph /  33.6 km/h 27.4 mph /  44.1 km/h 88 % 0.0 in /  0 mm
10:03 5.9 °F /  -14.5 °C 3.9 °F /  -15.6 °C 1017.2 in /  34442.4 hPa SSW 19.5 mph /  31.4 km/h 20.9 mph /  33.6 km/h 87 % 0.0 in /  0 mm
10:09 6.0 °F /  -14.4 °C 4.0 °F /  -15.6 °C 1017.2 in /  34442.4 hPa SSW 11.1 mph /  17.9 km/h 22.5 mph /  36.2 km/h 87 % 0.0 in /  0 mm
10:15 6.1 °F /  -14.4 °C 4.1 °F /  -15.5 °C 1016.8 in /  34428.8 hPa SSW 25.9 mph /  41.7 km/h 25.9 mph /  41.7 km/h 87 % 0.0 in /  0 mm
10:21 6.1 °F /  -14.4 °C 4.1 °F /  -15.5 °C 1016.8 in /  34428.8 hPa SSW 17.7 mph /  28.5 km/h 24.1 mph /  38.8 km/h 87 % 0.0 in /  0 mm
10:27 6.2 °F /  -14.3 °C 4.2 °F /  -15.4 °C 1016.8 in /  34428.8 hPa SSW 14.3 mph /  23 km/h 20.9 mph /  33.6 km/h 87 % 0.0 in /  0 mm
10:33 6.2 °F /  -14.3 °C 4.2 °F /  -15.4 °C 1016.8 in /  34428.8 hPa SSW 14.3 mph /  23 km/h 25.7 mph /  41.4 km/h 87 % 0.0 in /  0 mm
10:39 6.3 °F /  -14.3 °C 4.1 °F /  -15.5 °C 1016.8 in /  34428.8 hPa South 16.3 mph /  26.2 km/h 17.7 mph /  28.5 km/h 86 % 0.0 in /  0 mm
10:45 6.3 °F /  -14.3 °C 4.1 °F /  -15.5 °C 1016.5 in /  34418.7 hPa SSW 11.1 mph /  17.9 km/h 20.9 mph /  33.6 km/h 86 % 0.0 in /  0 mm
10:51 6.4 °F /  -14.2 °C 4.2 °F /  -15.4 °C 1016.5 in /  34418.7 hPa SW 25.9 mph /  41.7 km/h 27.4 mph /  44.1 km/h 86 % 0.0 in /  0 mm
10:57 6.4 °F /  -14.2 °C 4.2 °F /  -15.4 °C 1016.5 in /  34418.7 hPa SW 19.5 mph /  31.4 km/h 29.0 mph /  46.7 km/h 86 % 0.0 in /  0 mm
11:03 6.5 °F /  -14.2 °C 4.3 °F /  -15.4 °C 1016.8 in /  34428.8 hPa SSW 14.3 mph /  23 km/h 27.4 mph /  44.1 km/h 86 % 0.0 in /  0 mm
11:27 6.6 °F /  -14.1 °C 4.4 °F /  -15.3 °C 1016.5 in /  34418.7 hPa SW 19.5 mph /  31.4 km/h 25.7 mph /  41.4 km/h 86 % 0.0 in /  0 mm
11:37 6.6 °F /  -14.1 °C 4.4 °F /  -15.3 °C 1016.5 in /  34418.7 hPa SW 25.9 mph /  41.7 km/h 32.2 mph /  51.8 km/h 86 % 0.0 in /  0 mm
11:47 6.7 °F /  -14.1 °C 4.4 °F /  -15.3 °C 1016.5 in /  34418.7 hPa SW 17.7 mph /  28.5 km/h 27.4 mph /  44.1 km/h 85 % 0.0 in /  0 mm
11:53 6.8 °F /  -14 °C 4.5 °F /  -15.3 °C 1016.5 in /  34418.7 hPa SW 27.4 mph /  44.1 km/h 29.0 mph /  46.7 km/h 85 % 0.0 in /  0 mm
11:59 6.7 °F /  -14.1 °C 4.5 °F /  -15.3 °C 1016.1 in /  34405.1 hPa WSW 11.1 mph /  17.9 km/h 25.7 mph /  41.4 km/h 86 % 0.0 in /  0 mm
12:05 6.7 °F /  -14.1 °C 4.5 °F /  -15.3 °C 1016.1 in /  34405.1 hPa SW 13.0 mph /  20.9 km/h 25.7 mph /  41.4 km/h 86 % 0.0 in /  0 mm
12:11 6.7 °F /  -14.1 °C 4.5 °F /  -15.3 °C 1016.1 in /  34405.1 hPa WSW 7.9 mph /  12.7 km/h 20.9 mph /  33.6 km/h 86 % 0.0 in /  0 mm
12:17 6.8 °F /  -14 °C 4.6 °F /  -15.2 °C 1016.1 in /  34405.1 hPa SW 24.1 mph /  38.8 km/h 24.1 mph /  38.8 km/h 86 % 0.0 in /  0 mm
12:25 6.8 °F /  -14 °C 4.6 °F /  -15.2 °C 1015.8 in /  34395 hPa SSW 14.3 mph /  23 km/h 27.4 mph /  44.1 km/h 86 % 0.0 in /  0 mm
12:31 6.8 °F /  -14 °C 4.6 °F /  -15.2 °C 1015.8 in /  34395 hPa WSW 14.3 mph /  23 km/h 33.8 mph /  54.4 km/h 86 % 0.0 in /  0 mm
12:37 6.9 °F /  -13.9 °C 4.7 °F /  -15.2 °C 1015.8 in /  34395 hPa SW 25.9 mph /  41.7 km/h 25.9 mph /  41.7 km/h 86 % 0.0 in /  0 mm
12:43 7.0 °F /  -13.9 °C 4.8 °F /  -15.1 °C 1015.5 in /  34384.8 hPa SW 9.7 mph /  15.6 km/h 27.4 mph /  44.1 km/h 86 % 0.0 in /  0 mm
12:51 7.1 °F /  -13.8 °C 4.9 °F /  -15.1 °C 1015.1 in /  34371.3 hPa SW 9.7 mph /  15.6 km/h 24.1 mph /  38.8 km/h 86 % 0.0 in /  0 mm
13:03 7.1 °F /  -13.8 °C 4.9 °F /  -15.1 °C 1015.1 in /  34371.3 hPa SW 19.5 mph /  31.4 km/h 22.5 mph /  36.2 km/h 86 % 0.0 in /  0 mm
13:09 7.2 °F /  -13.8 °C 5.0 °F /  -15 °C 1014.8 in /  34361.1 hPa SW 22.7 mph /  36.5 km/h 30.6 mph /  49.2 km/h 86 % 0.0 in /  0 mm
13:15 7.2 °F /  -13.8 °C 5.2 °F /  -14.9 °C 1014.8 in /  34361.1 hPa SW 14.3 mph /  23 km/h 29.0 mph /  46.7 km/h 87 % 0.0 in /  0 mm
13:21 7.2 °F /  -13.8 °C 5.0 °F /  -15 °C 1014.8 in /  34361.1 hPa SW 19.5 mph /  31.4 km/h 29.0 mph /  46.7 km/h 86 % 0.0 in /  0 mm
13:27 7.2 °F /  -13.8 °C 5.0 °F /  -15 °C 1014.4 in /  34347.6 hPa WSW 17.7 mph /  28.5 km/h 22.5 mph /  36.2 km/h 86 % 0.0 in /  0 mm
13:39 7.1 °F /  -13.8 °C 5.1 °F /  -14.9 °C 1014.1 in /  34337.4 hPa SSW 20.9 mph /  33.6 km/h 25.7 mph /  41.4 km/h 87 % 0.0 in /  0 mm
13:45 7.2 °F /  -13.8 °C 5.2 °F /  -14.9 °C 1014.1 in /  34337.4 hPa SW 20.9 mph /  33.6 km/h 25.7 mph /  41.4 km/h 87 % 0.0 in /  0 mm
13:51 7.2 °F /  -13.8 °C 5.2 °F /  -14.9 °C 1014.1 in /  34337.4 hPa SW 22.7 mph /  36.5 km/h 30.6 mph /  49.2 km/h 87 % 0.0 in /  0 mm
13:58 7.2 °F /  -13.8 °C 5.3 °F /  -14.8 °C 1013.4 in /  34313.7 hPa SW 27.4 mph /  44.1 km/h 33.8 mph /  54.4 km/h 88 % 0.0 in /  0 mm
14:04 7.3 °F /  -13.7 °C 5.4 °F /  -14.8 °C 1013.4 in /  34313.7 hPa SSW 22.7 mph /  36.5 km/h 30.6 mph /  49.2 km/h 88 % 0.0 in /  0 mm
14:10 7.3 °F /  -13.7 °C 5.3 °F /  -14.8 °C 1013.4 in /  34313.7 hPa SW 17.7 mph /  28.5 km/h 33.8 mph /  54.4 km/h 87 % 0.0 in /  0 mm
14:16 7.4 °F /  -13.7 °C 5.4 °F /  -14.8 °C 1013.1 in /  34303.6 hPa WSW 24.1 mph /  38.8 km/h 32.2 mph /  51.8 km/h 87 % 0.0 in /  0 mm
14:22 7.4 °F /  -13.7 °C 5.4 °F /  -14.8 °C 1012.8 in /  34293.4 hPa SSW 22.7 mph /  36.5 km/h 40.2 mph /  64.7 km/h 87 % 0.0 in /  0 mm
14:28 7.2 °F /  -13.8 °C 5.3 °F /  -14.8 °C 1012.1 in /  34269.7 hPa SW 17.7 mph /  28.5 km/h 38.6 mph /  62.1 km/h 88 % 0.0 in /  0 mm
14:34 7.2 °F /  -13.8 °C 5.3 °F /  -14.8 °C 1011.7 in /  34256.2 hPa SW 22.7 mph /  36.5 km/h 40.2 mph /  64.7 km/h 88 % 0.0 in /  0 mm
14:44 7.1 °F /  -13.8 °C 5.4 °F /  -14.8 °C 1011.7 in /  34256.2 hPa SW 27.4 mph /  44.1 km/h 40.2 mph /  64.7 km/h 89 % 0.0 in /  0 mm
14:50 7.1 °F /  -13.8 °C 5.4 °F /  -14.8 °C 1011.4 in /  34246 hPa SSW 32.0 mph /  51.5 km/h 33.8 mph /  54.4 km/h 89 % 0.0 in /  0 mm
14:56 7.1 °F /  -13.8 °C 5.4 °F /  -14.8 °C 1011.4 in /  34246 hPa South 19.5 mph /  31.4 km/h 41.8 mph /  67.3 km/h 89 % 0.3 in /  7.62 mm
15:02 7.1 °F /  -13.8 °C 5.4 °F /  -14.8 °C 1011.4 in /  34246 hPa SSW 30.6 mph /  49.2 km/h 40.2 mph /  64.7 km/h 89 % 0.3 in /  7.62 mm
15:08 7.1 °F /  -13.8 °C 5.6 °F /  -14.7 °C 1010.7 in /  34222.3 hPa SSW 22.7 mph /  36.5 km/h 37.0 mph /  59.5 km/h 90 % 0.3 in /  7.62 mm
15:14 7.1 °F /  -13.8 °C 5.4 °F /  -14.8 °C 1010.7 in /  34222.3 hPa SW 24.1 mph /  38.8 km/h 35.4 mph /  57 km/h 89 % 0.3 in /  7.62 mm
15:20 7.2 °F /  -13.8 °C 5.5 °F /  -14.7 °C 1010.7 in /  34222.3 hPa SSW 25.9 mph /  41.7 km/h 37.0 mph /  59.5 km/h 89 % 0.3 in /  7.62 mm
15:26 7.2 °F /  -13.8 °C 5.5 °F /  -14.7 °C 1010.7 in /  34222.3 hPa SSW 13.0 mph /  20.9 km/h 38.6 mph /  62.1 km/h 89 % 0.3 in /  7.62 mm
15:40 6.9 °F /  -13.9 °C 5.5 °F /  -14.7 °C 1010.4 in /  34212.1 hPa SSW 19.5 mph /  31.4 km/h 32.2 mph /  51.8 km/h 91 % 0.5 in /  12.7 mm
15:46 6.9 °F /  -13.9 °C 5.5 °F /  -14.7 °C 1010.4 in /  34212.1 hPa SW 20.9 mph /  33.6 km/h 37.0 mph /  59.5 km/h 91 % 0.5 in /  12.7 mm
15:52 6.8 °F /  -14 °C 5.6 °F /  -14.7 °C 1010.0 in /  34198.6 hPa SW 19.5 mph /  31.4 km/h 38.6 mph /  62.1 km/h 92 % 0.5 in /  12.7 mm
15:58 6.8 °F /  -14 °C 5.6 °F /  -14.7 °C 1009.7 in /  34188.4 hPa SSW 33.8 mph /  54.4 km/h 37.0 mph /  59.5 km/h 92 % 1.0 in /  25.4 mm
16:04 6.8 °F /  -14 °C 5.7 °F /  -14.6 °C 1009.7 in /  34188.4 hPa SSW 22.7 mph /  36.5 km/h 38.6 mph /  62.1 km/h 93 % 1.3 in /  33.02 mm
16:10 6.8 °F /  -14 °C 5.7 °F /  -14.6 °C 1009.7 in /  34188.4 hPa SSW 25.9 mph /  41.7 km/h 40.2 mph /  64.7 km/h 93 % 1.3 in /  33.02 mm
16:18 6.8 °F /  -14 °C 5.7 °F /  -14.6 °C 1009.4 in /  34178.3 hPa SW 35.2 mph /  56.6 km/h 43.4 mph /  69.8 km/h 93 % 1.5 in /  38.1 mm
16:24 6.8 °F /  -14 °C 5.7 °F /  -14.6 °C 1009.0 in /  34164.7 hPa SSW 20.9 mph /  33.6 km/h 41.8 mph /  67.3 km/h 93 % 1.5 in /  38.1 mm
16:30 6.8 °F /  -14 °C 5.7 °F /  -14.6 °C 1009.0 in /  34164.7 hPa SSW 30.6 mph /  49.2 km/h 33.8 mph /  54.4 km/h 93 % 1.8 in /  45.72 mm
16:36 6.8 °F /  -14 °C 5.7 °F /  -14.6 °C 1009.0 in /  34164.7 hPa SW 20.9 mph /  33.6 km/h 41.8 mph /  67.3 km/h 93 % 1.8 in /  45.72 mm
16:44 6.8 °F /  -14 °C 5.9 °F /  -14.5 °C 1009.0 in /  34164.7 hPa SW 30.6 mph /  49.2 km/h 43.4 mph /  69.8 km/h 94 % 2.0 in /  50.8 mm
16:56 6.8 °F /  -14 °C 5.9 °F /  -14.5 °C 1008.7 in /  34154.6 hPa SSW 17.7 mph /  28.5 km/h 35.4 mph /  57 km/h 94 % 1.8 in /  45.72 mm
17:02 6.7 °F /  -14.1 °C 5.8 °F /  -14.6 °C 1008.7 in /  34154.6 hPa South 30.6 mph /  49.2 km/h 35.4 mph /  57 km/h 94 % 1.8 in /  45.72 mm
17:08 6.7 °F /  -14.1 °C 5.8 °F /  -14.6 °C 1008.7 in /  34154.6 hPa South 27.4 mph /  44.1 km/h 35.4 mph /  57 km/h 94 % 1.8 in /  45.72 mm
17:14 6.8 °F /  -14 °C 5.9 °F /  -14.5 °C 1008.4 in /  34144.4 hPa SSW 35.2 mph /  56.6 km/h 38.6 mph /  62.1 km/h 94 % 1.5 in /  38.1 mm
17:20 6.8 °F /  -14 °C 5.7 °F /  -14.6 °C 1008.4 in /  34144.4 hPa SSW 27.4 mph /  44.1 km/h 38.6 mph /  62.1 km/h 93 % 1.5 in /  38.1 mm
17:26 6.9 °F /  -13.9 °C 5.8 °F /  -14.6 °C 1008.4 in /  34144.4 hPa SSW 27.4 mph /  44.1 km/h 38.6 mph /  62.1 km/h 93 % 1.5 in /  38.1 mm
17:32 6.9 °F /  -13.9 °C 5.7 °F /  -14.6 °C 1008.4 in /  34144.4 hPa SW 30.6 mph /  49.2 km/h 37.0 mph /  59.5 km/h 92 % 1.3 in /  33.02 mm
17:38 7.0 °F /  -13.9 °C 5.8 °F /  -14.6 °C 1008.4 in /  34144.4 hPa SSW 25.9 mph /  41.7 km/h 35.4 mph /  57 km/h 92 % 1.0 in /  25.4 mm
17:48 7.1 °F /  -13.8 °C 5.7 °F /  -14.6 °C 1008.0 in /  34130.9 hPa SW 22.7 mph /  36.5 km/h 41.8 mph /  67.3 km/h 91 % 1.3 in /  33.02 mm
17:54 7.1 °F /  -13.8 °C 5.7 °F /  -14.6 °C 1008.4 in /  34144.4 hPa SW 32.0 mph /  51.5 km/h 41.8 mph /  67.3 km/h 91 % 1.3 in /  33.02 mm
18:00 7.1 °F /  -13.8 °C 5.7 °F /  -14.6 °C 1008.4 in /  34144.4 hPa SW 27.4 mph /  44.1 km/h 40.2 mph /  64.7 km/h 91 % 1.3 in /  33.02 mm
18:06 7.1 °F /  -13.8 °C 5.9 °F /  -14.5 °C 1008.4 in /  34144.4 hPa WSW 25.9 mph /  41.7 km/h 38.6 mph /  62.1 km/h 92 % 1.3 in /  33.02 mm
18:12 7.0 °F /  -13.9 °C 5.8 °F /  -14.6 °C 1008.0 in /  34130.9 hPa SW 16.3 mph /  26.2 km/h 37.0 mph /  59.5 km/h 92 % 1.5 in /  38.1 mm
18:22 7.0 °F /  -13.9 °C 5.9 °F /  -14.5 °C 1008.0 in /  34130.9 hPa SW 24.1 mph /  38.8 km/h 32.2 mph /  51.8 km/h 93 % 1.5 in /  38.1 mm
18:28 7.0 °F /  -13.9 °C 5.9 °F /  -14.5 °C 1008.0 in /  34130.9 hPa SW 19.5 mph /  31.4 km/h 33.8 mph /  54.4 km/h 93 % 1.5 in /  38.1 mm
18:34 7.1 °F /  -13.8 °C 6.0 °F /  -14.4 °C 1008.0 in /  34130.9 hPa WSW 24.1 mph /  38.8 km/h 30.6 mph /  49.2 km/h 93 % 1.5 in /  38.1 mm
18:40 7.1 °F /  -13.8 °C 6.0 °F /  -14.4 °C 1007.7 in /  34120.7 hPa SW 22.7 mph /  36.5 km/h 27.4 mph /  44.1 km/h 93 % 1.5 in /  38.1 mm
18:46 7.2 °F /  -13.8 °C 6.1 °F /  -14.4 °C 1007.7 in /  34120.7 hPa SW 24.1 mph /  38.8 km/h 35.4 mph /  57 km/h 93 % 1.5 in /  38.1 mm
18:52 7.2 °F /  -13.8 °C 6.1 °F /  -14.4 °C 1007.7 in /  34120.7 hPa SW 24.1 mph /  38.8 km/h 37.0 mph /  59.5 km/h 93 % 1.5 in /  38.1 mm
18:58 7.3 °F /  -13.7 °C 6.2 °F /  -14.3 °C 1007.7 in /  34120.7 hPa WSW 16.3 mph /  26.2 km/h 35.4 mph /  57 km/h 93 % 1.3 in /  33.02 mm
19:10 7.3 °F /  -13.7 °C 6.4 °F /  -14.2 °C 1007.7 in /  34120.7 hPa WSW 17.7 mph /  28.5 km/h 40.2 mph /  64.7 km/h 94 % 0.5 in /  12.7 mm
19:16 7.3 °F /  -13.7 °C 6.4 °F /  -14.2 °C 1007.7 in /  34120.7 hPa SW 17.7 mph /  28.5 km/h 33.8 mph /  54.4 km/h 94 % 0.5 in /  12.7 mm
19:22 7.4 °F /  -13.7 °C 6.5 °F /  -14.2 °C 1007.7 in /  34120.7 hPa SW 32.0 mph /  51.5 km/h 38.6 mph /  62.1 km/h 94 % 0.5 in /  12.7 mm
19:28 7.4 °F /  -13.7 °C 6.5 °F /  -14.2 °C 1007.7 in /  34120.7 hPa WSW 27.4 mph /  44.1 km/h 29.0 mph /  46.7 km/h 94 % 0.5 in /  12.7 mm
19:40 7.4 °F /  -13.7 °C 6.5 °F /  -14.2 °C 1007.7 in /  34120.7 hPa SW 30.6 mph /  49.2 km/h 40.2 mph /  64.7 km/h 94 % 0.5 in /  12.7 mm
19:46 7.5 °F /  -13.6 °C 6.6 °F /  -14.1 °C 1007.7 in /  34120.7 hPa WSW 17.7 mph /  28.5 km/h 35.4 mph /  57 km/h 94 % 0.5 in /  12.7 mm
19:52 7.5 °F /  -13.6 °C 6.8 °F /  -14 °C 1007.7 in /  34120.7 hPa West 9.7 mph /  15.6 km/h 29.0 mph /  46.7 km/h 95 % 0.5 in /  12.7 mm
19:58 7.5 °F /  -13.6 °C 6.8 °F /  -14 °C 1007.7 in /  34120.7 hPa SW 30.6 mph /  49.2 km/h 30.6 mph /  49.2 km/h 95 % 0.5 in /  12.7 mm
20:04 7.5 °F /  -13.6 °C 6.8 °F /  -14 °C 1007.7 in /  34120.7 hPa WSW 19.5 mph /  31.4 km/h 32.2 mph /  51.8 km/h 95 % 0.8 in /  20.32 mm
20:10 7.5 °F /  -13.6 °C 6.8 °F /  -14 °C 1007.7 in /  34120.7 hPa SW 20.9 mph /  33.6 km/h 27.4 mph /  44.1 km/h 95 % 1.3 in /  33.02 mm
20:16 7.5 °F /  -13.6 °C 6.8 °F /  -14 °C 1007.7 in /  34120.7 hPa SW 20.9 mph /  33.6 km/h 32.2 mph /  51.8 km/h 95 % 1.5 in /  38.1 mm
20:24 7.6 °F /  -13.6 °C 6.9 °F /  -13.9 °C 1007.7 in /  34120.7 hPa SSW 30.6 mph /  49.2 km/h 32.2 mph /  51.8 km/h 95 % 1.5 in /  38.1 mm
20:30 7.7 °F /  -13.5 °C 6.9 °F /  -13.9 °C 1007.7 in /  34120.7 hPa West 22.7 mph /  36.5 km/h 35.4 mph /  57 km/h 95 % 1.5 in /  38.1 mm
20:36 7.8 °F /  -13.4 °C 7.0 °F /  -13.9 °C 1007.7 in /  34120.7 hPa SSW 20.9 mph /  33.6 km/h 33.8 mph /  54.4 km/h 95 % 1.3 in /  33.02 mm
20:42 7.8 °F /  -13.4 °C 7.0 °F /  -13.9 °C 1007.7 in /  34120.7 hPa WSW 19.5 mph /  31.4 km/h 29.0 mph /  46.7 km/h 95 % 1.5 in /  38.1 mm
20:54 7.8 °F /  -13.4 °C 7.2 °F /  -13.8 °C 1007.7 in /  34120.7 hPa SSW 17.7 mph /  28.5 km/h 27.4 mph /  44.1 km/h 96 % 1.5 in /  38.1 mm
21:04 7.9 °F /  -13.4 °C 7.3 °F /  -13.7 °C 1007.7 in /  34120.7 hPa SW 28.8 mph /  46.3 km/h 32.2 mph /  51.8 km/h 96 % 1.5 in /  38.1 mm
21:10 8.1 °F /  -13.3 °C 7.5 °F /  -13.6 °C 1008.0 in /  34130.9 hPa West 14.3 mph /  23 km/h 29.0 mph /  46.7 km/h 96 % 1.3 in /  33.02 mm
21:22 8.1 °F /  -13.3 °C 7.5 °F /  -13.6 °C 1007.7 in /  34120.7 hPa SW 24.1 mph /  38.8 km/h 24.1 mph /  38.8 km/h 96 % 1.5 in /  38.1 mm
21:28 8.1 °F /  -13.3 °C 7.5 °F /  -13.6 °C 1007.7 in /  34120.7 hPa WSW 20.9 mph /  33.6 km/h 22.5 mph /  36.2 km/h 96 % 1.5 in /  38.1 mm
21:34 8.1 °F /  -13.3 °C 7.5 °F /  -13.6 °C 1007.7 in /  34120.7 hPa SW 19.5 mph /  31.4 km/h 24.1 mph /  38.8 km/h 96 % 1.8 in /  45.72 mm
21:40 8.2 °F /  -13.2 °C 7.6 °F /  -13.6 °C 1007.7 in /  34120.7 hPa SW 17.7 mph /  28.5 km/h 32.2 mph /  51.8 km/h 96 % 1.5 in /  38.1 mm
21:46 8.3 °F /  -13.2 °C 7.7 °F /  -13.5 °C 1007.7 in /  34120.7 hPa SW 16.3 mph /  26.2 km/h 35.4 mph /  57 km/h 96 % 1.5 in /  38.1 mm
21:48 8.3 °F /  -13.2 °C 7.7 °F /  -13.5 °C 1007.7 in /  34120.7 hPa WSW 27.4 mph /  44.1 km/h 30.6 mph /  49.2 km/h 96 % 1.5 in /  38.1 mm
21:49 8.2 °F /  -13.2 °C 7.6 °F /  -13.6 °C 1007.7 in /  34120.7 hPa WSW 16.3 mph /  26.2 km/h 29.0 mph /  46.7 km/h 96 % 1.5 in /  38.1 mm
21:50 8.3 °F /  -13.2 °C 7.7 °F /  -13.5 °C 1007.7 in /  34120.7 hPa WSW 25.9 mph /  41.7 km/h 27.4 mph /  44.1 km/h 96 % 1.5 in /  38.1 mm
21:52 8.3 °F /  -13.2 °C 7.7 °F /  -13.5 °C 1007.7 in /  34120.7 hPa SSW 27.4 mph /  44.1 km/h 29.0 mph /  46.7 km/h 96 % 1.5 in /  38.1 mm
21:54 8.3 °F /  -13.2 °C 7.7 °F /  -13.5 °C 1007.7 in /  34120.7 hPa SW 17.7 mph /  28.5 km/h 29.0 mph /  46.7 km/h 96 % 1.5 in /  38.1 mm
21:58 8.4 °F /  -13.1 °C 7.6 °F /  -13.6 °C 1007.7 in /  34120.7 hPa SW 19.5 mph /  31.4 km/h 30.6 mph /  49.2 km/h 95 % 1.5 in /  38.1 mm
22:00 8.4 °F /  -13.1 °C 7.6 °F /  -13.6 °C 1007.7 in /  34120.7 hPa WSW 9.7 mph /  15.6 km/h 32.2 mph /  51.8 km/h 95 % 1.5 in /  38.1 mm
22:08 8.4 °F /  -13.1 °C 7.6 °F /  -13.6 °C 1007.7 in /  34120.7 hPa WSW 38.5 mph /  62 km/h 38.6 mph /  62.1 km/h 95 % 1.3 in /  33.02 mm
22:10 8.5 °F /  -13.1 °C 7.7 °F /  -13.5 °C 1007.7 in /  34120.7 hPa WSW 17.7 mph /  28.5 km/h 38.6 mph /  62.1 km/h 95 % 1.3 in /  33.02 mm
22:16 8.5 °F /  -13.1 °C 7.7 °F /  -13.5 °C 1007.7 in /  34120.7 hPa West 13.0 mph /  20.9 km/h 24.1 mph /  38.8 km/h 95 % 0.8 in /  20.32 mm
22:22 8.6 °F /  -13 °C 7.8 °F /  -13.4 °C 1007.3 in /  34107.2 hPa WSW 17.7 mph /  28.5 km/h 40.2 mph /  64.7 km/h 95 % 0.5 in /  12.7 mm
22:24 8.7 °F /  -12.9 °C 7.9 °F /  -13.4 °C 1007.7 in /  34120.7 hPa WSW 22.7 mph /  36.5 km/h 35.4 mph /  57 km/h 95 % 0.5 in /  12.7 mm
22:26 8.7 °F /  -12.9 °C 7.9 °F /  -13.4 °C 1007.7 in /  34120.7 hPa West 17.7 mph /  28.5 km/h 29.0 mph /  46.7 km/h 95 % 0.5 in /  12.7 mm
22:28 8.7 °F /  -12.9 °C 7.9 °F /  -13.4 °C 1007.7 in /  34120.7 hPa WSW 19.5 mph /  31.4 km/h 27.4 mph /  44.1 km/h 95 % 0.5 in /  12.7 mm
22:34 8.7 °F /  -12.9 °C 7.9 °F /  -13.4 °C 1007.7 in /  34120.7 hPa SSW 13.0 mph /  20.9 km/h 20.9 mph /  33.6 km/h 95 % 0.3 in /  7.62 mm
22:40 8.7 °F /  -12.9 °C 7.9 °F /  -13.4 °C 1007.7 in /  34120.7 hPa West 6.4 mph /  10.3 km/h 22.5 mph /  36.2 km/h 95 % 0.5 in /  12.7 mm
22:46 8.7 °F /  -12.9 °C 7.9 °F /  -13.4 °C 1007.7 in /  34120.7 hPa WSW 19.5 mph /  31.4 km/h 30.6 mph /  49.2 km/h 95 % 0.5 in /  12.7 mm
22:56 8.8 °F /  -12.9 °C 8.0 °F /  -13.3 °C 1007.7 in /  34120.7 hPa SW 16.3 mph /  26.2 km/h 29.0 mph /  46.7 km/h 95 % 0.5 in /  12.7 mm
22:58 8.8 °F /  -12.9 °C 8.0 °F /  -13.3 °C 1007.7 in /  34120.7 hPa SW 20.9 mph /  33.6 km/h 22.5 mph /  36.2 km/h 95 % 0.5 in /  12.7 mm
23:08 8.9 °F /  -12.8 °C 8.1 °F /  -13.3 °C 1007.7 in /  34120.7 hPa SW 22.7 mph /  36.5 km/h 33.8 mph /  54.4 km/h 95 % 0.5 in /  12.7 mm
23:16 8.9 °F /  -12.8 °C 8.1 °F /  -13.3 °C 1008.0 in /  34130.9 hPa SW 13.0 mph /  20.9 km/h 22.5 mph /  36.2 km/h 95 % 0.5 in /  12.7 mm
23:22 8.9 °F /  -12.8 °C 8.1 °F /  -13.3 °C 1008.0 in /  34130.9 hPa WNW 9.7 mph /  15.6 km/h 24.1 mph /  38.8 km/h 95 % 0.5 in /  12.7 mm
23:32 9.0 °F /  -12.8 °C 8.2 °F /  -13.2 °C 1008.0 in /  34130.9 hPa SW 17.7 mph /  28.5 km/h 29.0 mph /  46.7 km/h 95 % 0.5 in /  12.7 mm
23:38 9.0 °F /  -12.8 °C 8.1 °F /  -13.3 °C 1007.7 in /  34120.7 hPa WSW 27.4 mph /  44.1 km/h 27.4 mph /  44.1 km/h 94 % 0.5 in /  12.7 mm
23:44 9.1 °F /  -12.7 °C 8.2 °F /  -13.2 °C 1008.0 in /  34130.9 hPa SW 20.9 mph /  33.6 km/h 22.5 mph /  36.2 km/h 94 % 0.0 in /  0 mm
23:50 9.0 °F /  -12.8 °C 8.1 °F /  -13.3 °C 1007.7 in /  34120.7 hPa SW 14.3 mph /  23 km/h 29.0 mph /  46.7 km/h 94 % 0.3 in /  7.62 mm
23:56 9.0 °F /  -12.8 °C 8.1 °F /  -13.3 °C 1008.0 in /  34130.9 hPa WSW 14.3 mph /  23 km/h 25.7 mph /  41.4 km/h 94 % 0.3 in /  7.62 mm
Meteo18
Compliments of Weather Underground - 4 mb

Script developed by  Jim McMurry - jmcmurry@mwt.net Adapted for the template by  Wim van der Kuil - Leuven-Template.eu

You find our weather info also at:

European Weather Network

Weather Underground

Equipment we use:

Weather-station
Davis Vue

Weather-program
Meteobridge

Weather-server
Raspberry PI 2 B+

Provider
1 and 1

Davis Vue

Meteobridge

Raspberry PI 2 B+

1 and 1